sensor_id;sensor_type;location;lat;lon;timestamp;temperature;humidity
7307;DHT22;3694;48.732;9.248;2023-02-15T00:01:36;-1.10;99.90
7307;DHT22;3694;48.732;9.248;2023-02-15T00:04:02;-1.20;99.90
7307;DHT22;3694;48.732;9.248;2023-02-15T00:06:29;-1.00;99.90
7307;DHT22;3694;48.732;9.248;2023-02-15T00:08:55;-1.30;99.90
7307;DHT22;3694;48.732;9.248;2023-02-15T00:11:21;-1.30;99.90
7307;DHT22;3694;48.732;9.248;2023-02-15T00:14:07;-1.40;99.90
7307;DHT22;3694;48.732;9.248;2023-02-15T00:16:33;-1.50;99.90
7307;DHT22;3694;48.732;9.248;2023-02-15T00:18:58;-1.50;99.90
7307;DHT22;3694;48.732;9.248;2023-02-15T00:21:28;-1.50;99.90
7307;DHT22;3694;48.732;9.248;2023-02-15T00:23:55;-1.60;99.90
7307;DHT22;3694;48.732;9.248;2023-02-15T00:26:21;-1.60;99.90
7307;DHT22;3694;48.732;9.248;2023-02-15T00:28:46;-1.50;99.90
7307;DHT22;3694;48.732;9.248;2023-02-15T00:31:12;-1.50;99.90
7307;DHT22;3694;48.732;9.248;2023-02-15T00:33:39;-1.50;99.90
7307;DHT22;3694;48.732;9.248;2023-02-15T00:36:06;-1.40;99.90
7307;DHT22;3694;48.732;9.248;2023-02-15T00:38:32;-1.30;99.90
7307;DHT22;3694;48.732;9.248;2023-02-15T00:41:00;-1.20;99.90
7307;DHT22;3694;48.732;9.248;2023-02-15T00:43:27;-1.10;99.90
7307;DHT22;3694;48.732;9.248;2023-02-15T00:45:53;-1.10;99.90
7307;DHT22;3694;48.732;9.248;2023-02-15T00:48:19;-1.10;99.90
7307;DHT22;3694;48.732;9.248;2023-02-15T00:50:46;-1.30;99.90
7307;DHT22;3694;48.732;9.248;2023-02-15T00:53:12;-1.30;99.90
7307;DHT22;3694;48.732;9.248;2023-02-15T00:55:38;-1.40;99.90
7307;DHT22;3694;48.732;9.248;2023-02-15T00:58:08;-1.40;99.90
7307;DHT22;3694;48.732;9.248;2023-02-15T01:00:34;-1.50;99.90
7307;DHT22;3694;48.732;9.248;2023-02-15T01:03:00;-1.60;99.90
7307;DHT22;3694;48.732;9.248;2023-02-15T01:05:26;-1.60;99.90
7307;DHT22;3694;48.732;9.248;2023-02-15T01:07:51;-1.50;99.90
7307;DHT22;3694;48.732;9.248;2023-02-15T01:10:17;-1.40;99.90
7307;DHT22;3694;48.732;9.248;2023-02-15T01:12:43;-1.50;99.90
7307;DHT22;3694;48.732;9.248;2023-02-15T01:15:09;-1.50;99.90
7307;DHT22;3694;48.732;9.248;2023-02-15T01:17:34;-1.60;99.90
7307;DHT22;3694;48.732;9.248;2023-02-15T01:20:00;-1.70;99.90
7307;DHT22;3694;48.732;9.248;2023-02-15T01:22:26;-1.70;99.90
7307;DHT22;3694;48.732;9.248;2023-02-15T01:24:51;-1.60;99.90
7307;DHT22;3694;48.732;9.248;2023-02-15T01:27:17;-1.50;99.90
7307;DHT22;3694;48.732;9.248;2023-02-15T01:29:43;-1.40;99.90
7307;DHT22;3694;48.732;9.248;2023-02-15T01:32:08;-1.50;99.90
7307;DHT22;3694;48.732;9.248;2023-02-15T01:34:34;-1.40;99.90
7307;DHT22;3694;48.732;9.248;2023-02-15T01:37:00;-1.50;99.90
7307;DHT22;3694;48.732;9.248;2023-02-15T01:39:25;-1.20;99.90
7307;DHT22;3694;48.732;9.248;2023-02-15T01:41:51;-1.50;99.90
7307;DHT22;3694;48.732;9.248;2023-02-15T01:44:47;-1.50;99.90
7307;DHT22;3694;48.732;9.248;2023-02-15T01:47:18;-1.50;99.90
7307;DHT22;3694;48.732;9.248;2023-02-15T01:49:46;-1.40;99.90
7307;DHT22;3694;48.732;9.248;2023-02-15T01:52:14;-1.40;99.90
7307;DHT22;3694;48.732;9.248;2023-02-15T01:54:41;-1.50;99.90
7307;DHT22;3694;48.732;9.248;2023-02-15T01:57:22;-1.40;99.90
7307;DHT22;3694;48.732;9.248;2023-02-15T01:59:52;-1.40;99.90
7307;DHT22;3694;48.732;9.248;2023-02-15T02:02:19;-1.40;99.90
7307;DHT22;3694;48.732;9.248;2023-02-15T02:04:56;-1.30;99.90
7307;DHT22;3694;48.732;9.248;2023-02-15T02:07:27;-1.30;99.90
7307;DHT22;3694;48.732;9.248;2023-02-15T02:09:53;-1.30;99.90
7307;DHT22;3694;48.732;9.248;2023-02-15T02:12:21;-1.20;99.90
7307;DHT22;3694;48.732;9.248;2023-02-15T02:14:48;-1.10;99.90
7307;DHT22;3694;48.732;9.248;2023-02-15T02:17:43;-1.10;99.90
7307;DHT22;3694;48.732;9.248;2023-02-15T02:20:24;-1.20;99.90
7307;DHT22;3694;48.732;9.248;2023-02-15T02:23:14;-1.20;99.90
7307;DHT22;3694;48.732;9.248;2023-02-15T02:25:50;-1.20;99.90
7307;DHT22;3694;48.732;9.248;2023-02-15T02:28:49;-1.20;99.90
7307;DHT22;3694;48.732;9.248;2023-02-15T02:31:43;-1.20;99.90
7307;DHT22;3694;48.732;9.248;2023-02-15T02:34:30;-1.20;99.90
7307;DHT22;3694;48.732;9.248;2023-02-15T02:40:06;-1.40;99.90
7307;DHT22;3694;48.732;9.248;2023-02-15T02:42:40;-1.50;99.90
7307;DHT22;3694;48.732;9.248;2023-02-15T02:45:15;-1.50;99.90
7307;DHT22;3694;48.732;9.248;2023-02-15T02:47:51;-1.50;99.90
7307;DHT22;3694;48.732;9.248;2023-02-15T02:50:22;-1.60;99.90
7307;DHT22;3694;48.732;9.248;2023-02-15T02:52:50;-1.50;99.90
7307;DHT22;3694;48.732;9.248;2023-02-15T02:55:21;-1.40;99.90
7307;DHT22;3694;48.732;9.248;2023-02-15T02:58:09;-1.40;99.90
7307;DHT22;3694;48.732;9.248;2023-02-15T03:00:52;-1.30;99.90
7307;DHT22;3694;48.732;9.248;2023-02-15T03:03:41;-1.30;99.90
7307;DHT22;3694;48.732;9.248;2023-02-15T03:06:19;-1.40;99.90
7307;DHT22;3694;48.732;9.248;2023-02-15T03:08:50;-1.50;99.90
7307;DHT22;3694;48.732;9.248;2023-02-15T03:11:16;-1.60;99.90
7307;DHT22;3694;48.732;9.248;2023-02-15T03:13:44;-1.60;99.90
7307;DHT22;3694;48.732;9.248;2023-02-15T03:16:12;-1.70;99.90
7307;DHT22;3694;48.732;9.248;2023-02-15T03:18:58;-1.70;99.90
7307;DHT22;3694;48.732;9.248;2023-02-15T03:21:46;-1.70;99.90
7307;DHT22;3694;48.732;9.248;2023-02-15T03:24:26;-1.80;99.90
7307;DHT22;3694;48.732;9.248;2023-02-15T03:26:54;-1.90;99.90
7307;DHT22;3694;48.732;9.248;2023-02-15T03:29:24;-1.90;99.90
7307;DHT22;3694;48.732;9.248;2023-02-15T03:31:55;-1.80;99.90
7307;DHT22;3694;48.732;9.248;2023-02-15T03:34:21;-1.80;99.90
7307;DHT22;3694;48.732;9.248;2023-02-15T03:37:00;-1.80;99.90
7307;DHT22;3694;48.732;9.248;2023-02-15T03:40:06;-1.80;99.90
7307;DHT22;3694;48.732;9.248;2023-02-15T03:45:52;-1.70;99.90
7307;DHT22;3694;48.732;9.248;2023-02-15T03:48:27;-1.70;99.90
7307;DHT22;3694;48.732;9.248;2023-02-15T03:50:58;-1.70;99.90
7307;DHT22;3694;48.732;9.248;2023-02-15T03:53:43;-1.80;99.90
7307;DHT22;3694;48.732;9.248;2023-02-15T03:56:10;-1.80;99.90
7307;DHT22;3694;48.732;9.248;2023-02-15T03:58:36;-1.90;99.90
7307;DHT22;3694;48.732;9.248;2023-02-15T04:01:37;-1.90;99.90
7307;DHT22;3694;48.732;9.248;2023-02-15T04:06:55;-2.10;99.90
7307;DHT22;3694;48.732;9.248;2023-02-15T04:09:21;-2.10;99.90
7307;DHT22;3694;48.732;9.248;2023-02-15T04:12:06;-2.00;99.90
7307;DHT22;3694;48.732;9.248;2023-02-15T04:14:31;-1.80;99.90
7307;DHT22;3694;48.732;9.248;2023-02-15T04:17:16;-2.10;99.90
7307;DHT22;3694;48.732;9.248;2023-02-15T04:19:41;-2.10;99.90
7307;DHT22;3694;48.732;9.248;2023-02-15T04:22:25;-2.20;99.90
7307;DHT22;3694;48.732;9.248;2023-02-15T04:25:10;-1.80;99.90
7307;DHT22;3694;48.732;9.248;2023-02-15T04:27:40;-2.30;99.90
7307;DHT22;3694;48.732;9.248;2023-02-15T04:30:08;-2.30;99.90
7307;DHT22;3694;48.732;9.248;2023-02-15T04:32:34;-2.30;99.90
7307;DHT22;3694;48.732;9.248;2023-02-15T04:35:00;-2.40;99.90
7307;DHT22;3694;48.732;9.248;2023-02-15T04:37:26;-2.40;99.90
7307;DHT22;3694;48.732;9.248;2023-02-15T04:39:52;-2.40;99.90
7307;DHT22;3694;48.732;9.248;2023-02-15T04:42:17;-2.60;99.90
7307;DHT22;3694;48.732;9.248;2023-02-15T04:44:43;-2.60;99.90
7307;DHT22;3694;48.732;9.248;2023-02-15T04:47:09;-2.60;99.90
7307;DHT22;3694;48.732;9.248;2023-02-15T04:49:34;-2.60;99.90
7307;DHT22;3694;48.732;9.248;2023-02-15T04:52:00;-2.60;99.90
7307;DHT22;3694;48.732;9.248;2023-02-15T04:54:25;-2.50;99.90
7307;DHT22;3694;48.732;9.248;2023-02-15T04:56:51;-2.50;99.90
7307;DHT22;3694;48.732;9.248;2023-02-15T04:59:17;-2.50;99.90
7307;DHT22;3694;48.732;9.248;2023-02-15T05:01:42;-2.20;99.90
7307;DHT22;3694;48.732;9.248;2023-02-15T05:04:08;-2.40;99.90
7307;DHT22;3694;48.732;9.248;2023-02-15T05:06:34;-2.50;99.90
7307;DHT22;3694;48.732;9.248;2023-02-15T05:09:00;-2.40;99.90
7307;DHT22;3694;48.732;9.248;2023-02-15T05:11:26;-2.20;99.90
7307;DHT22;3694;48.732;9.248;2023-02-15T05:13:52;-2.30;99.90
7307;DHT22;3694;48.732;9.248;2023-02-15T05:16:17;-2.20;99.90
7307;DHT22;3694;48.732;9.248;2023-02-15T05:18:43;-2.30;99.90
7307;DHT22;3694;48.732;9.248;2023-02-15T05:21:08;-2.20;99.90
7307;DHT22;3694;48.732;9.248;2023-02-15T05:23:34;-2.20;99.90
7307;DHT22;3694;48.732;9.248;2023-02-15T05:26:00;-2.20;99.90
7307;DHT22;3694;48.732;9.248;2023-02-15T05:28:44;-2.20;99.90
7307;DHT22;3694;48.732;9.248;2023-02-15T05:31:14;-2.20;99.90
7307;DHT22;3694;48.732;9.248;2023-02-15T05:33:41;-2.20;99.90
7307;DHT22;3694;48.732;9.248;2023-02-15T05:36:08;-2.40;99.90
7307;DHT22;3694;48.732;9.248;2023-02-15T05:38:34;-2.40;99.90
7307;DHT22;3694;48.732;9.248;2023-02-15T05:41:02;-2.50;99.90
7307;DHT22;3694;48.732;9.248;2023-02-15T05:43:27;-2.40;99.90
7307;DHT22;3694;48.732;9.248;2023-02-15T05:45:54;-2.60;99.90
7307;DHT22;3694;48.732;9.248;2023-02-15T05:48:24;-2.60;99.90
7307;DHT22;3694;48.732;9.248;2023-02-15T05:51:08;-2.60;99.90
7307;DHT22;3694;48.732;9.248;2023-02-15T05:53:36;-2.60;99.90
7307;DHT22;3694;48.732;9.248;2023-02-15T05:56:03;-2.60;99.90
7307;DHT22;3694;48.732;9.248;2023-02-15T05:58:40;-2.60;99.90
7307;DHT22;3694;48.732;9.248;2023-02-15T06:01:13;-2.60;99.90
7307;DHT22;3694;48.732;9.248;2023-02-15T06:03:40;-2.70;99.90
7307;DHT22;3694;48.732;9.248;2023-02-15T06:06:06;-2.60;99.90
7307;DHT22;3694;48.732;9.248;2023-02-15T06:08:33;-2.60;99.90
7307;DHT22;3694;48.732;9.248;2023-02-15T06:10:59;-2.70;99.90
7307;DHT22;3694;48.732;9.248;2023-02-15T06:13:24;-2.70;99.90
7307;DHT22;3694;48.732;9.248;2023-02-15T06:15:50;-2.70;99.90
7307;DHT22;3694;48.732;9.248;2023-02-15T06:18:16;-2.70;99.90
7307;DHT22;3694;48.732;9.248;2023-02-15T06:20:41;-2.60;99.90
7307;DHT22;3694;48.732;9.248;2023-02-15T06:23:07;-2.50;99.90
7307;DHT22;3694;48.732;9.248;2023-02-15T06:25:32;-2.50;99.90
7307;DHT22;3694;48.732;9.248;2023-02-15T06:27:58;-2.50;99.90
7307;DHT22;3694;48.732;9.248;2023-02-15T06:30:24;-2.50;99.90
7307;DHT22;3694;48.732;9.248;2023-02-15T06:32:49;-2.50;99.90
7307;DHT22;3694;48.732;9.248;2023-02-15T06:35:15;-2.50;99.90
7307;DHT22;3694;48.732;9.248;2023-02-15T06:37:40;-2.30;99.90
7307;DHT22;3694;48.732;9.248;2023-02-15T06:40:07;-2.30;99.90
7307;DHT22;3694;48.732;9.248;2023-02-15T06:42:33;-2.30;99.90
7307;DHT22;3694;48.732;9.248;2023-02-15T06:44:58;-2.20;99.90
7307;DHT22;3694;48.732;9.248;2023-02-15T06:47:25;-2.20;99.90
7307;DHT22;3694;48.732;9.248;2023-02-15T06:49:51;-2.20;99.90
7307;DHT22;3694;48.732;9.248;2023-02-15T06:52:16;-2.20;99.90
7307;DHT22;3694;48.732;9.248;2023-02-15T06:54:42;-2.10;99.90
7307;DHT22;3694;48.732;9.248;2023-02-15T06:57:08;-2.10;99.90
7307;DHT22;3694;48.732;9.248;2023-02-15T06:59:34;-2.00;99.90
7307;DHT22;3694;48.732;9.248;2023-02-15T07:02:00;-1.90;99.90
7307;DHT22;3694;48.732;9.248;2023-02-15T07:04:25;-1.90;99.90
7307;DHT22;3694;48.732;9.248;2023-02-15T07:06:53;-2.20;99.90
7307;DHT22;3694;48.732;9.248;2023-02-15T07:09:19;-1.80;99.90
7307;DHT22;3694;48.732;9.248;2023-02-15T07:11:44;-1.80;99.90
7307;DHT22;3694;48.732;9.248;2023-02-15T07:14:29;-1.60;99.90
7307;DHT22;3694;48.732;9.248;2023-02-15T07:16:54;-1.60;99.90
7307;DHT22;3694;48.732;9.248;2023-02-15T07:19:20;-1.60;99.90
7307;DHT22;3694;48.732;9.248;2023-02-15T07:21:45;-1.50;99.90
7307;DHT22;3694;48.732;9.248;2023-02-15T07:24:11;-1.40;99.90
7307;DHT22;3694;48.732;9.248;2023-02-15T07:26:36;-1.30;99.90
7307;DHT22;3694;48.732;9.248;2023-02-15T07:29:02;-1.30;99.90
7307;DHT22;3694;48.732;9.248;2023-02-15T07:31:27;-1.30;99.90
7307;DHT22;3694;48.732;9.248;2023-02-15T07:33:53;-1.20;99.90
7307;DHT22;3694;48.732;9.248;2023-02-15T07:36:19;-1.10;99.90
7307;DHT22;3694;48.732;9.248;2023-02-15T07:38:44;-1.10;99.90
7307;DHT22;3694;48.732;9.248;2023-02-15T07:41:13;-0.90;99.90
7307;DHT22;3694;48.732;9.248;2023-02-15T07:43:41;-0.90;99.90
7307;DHT22;3694;48.732;9.248;2023-02-15T07:46:09;-0.10;99.90
7307;DHT22;3694;48.732;9.248;2023-02-15T07:48:36;0.60;99.90
7307;DHT22;3694;48.732;9.248;2023-02-15T07:51:03;1.90;99.90
7307;DHT22;3694;48.732;9.248;2023-02-15T07:53:29;2.50;99.90
7307;DHT22;3694;48.732;9.248;2023-02-15T07:56:05;2.70;99.90
7307;DHT22;3694;48.732;9.248;2023-02-15T07:58:31;2.90;99.90
7307;DHT22;3694;48.732;9.248;2023-02-15T08:01:17;2.90;99.90
7307;DHT22;3694;48.732;9.248;2023-02-15T08:03:43;2.80;99.90
7307;DHT22;3694;48.732;9.248;2023-02-15T08:06:09;3.00;99.90
7307;DHT22;3694;48.732;9.248;2023-02-15T08:08:37;3.10;99.90
7307;DHT22;3694;48.732;9.248;2023-02-15T08:16:47;3.10;99.90
7307;DHT22;3694;48.732;9.248;2023-02-15T08:19:27;3.00;99.90
7307;DHT22;3694;48.732;9.248;2023-02-15T08:22:02;2.90;99.90
7307;DHT22;3694;48.732;9.248;2023-02-15T08:24:31;2.90;99.90
7307;DHT22;3694;48.732;9.248;2023-02-15T08:26:57;2.90;99.90
7307;DHT22;3694;48.732;9.248;2023-02-15T08:29:26;2.80;99.90
7307;DHT22;3694;48.732;9.248;2023-02-15T08:32:00;2.60;99.90
7307;DHT22;3694;48.732;9.248;2023-02-15T08:34:31;2.50;99.90
7307;DHT22;3694;48.732;9.248;2023-02-15T08:36:57;2.40;99.90
7307;DHT22;3694;48.732;9.248;2023-02-15T08:39:23;2.30;99.90
7307;DHT22;3694;48.732;9.248;2023-02-15T08:41:48;2.40;99.90
7307;DHT22;3694;48.732;9.248;2023-02-15T08:44:16;2.20;99.90
7307;DHT22;3694;48.732;9.248;2023-02-15T08:46:43;2.20;99.90
7307;DHT22;3694;48.732;9.248;2023-02-15T08:49:12;2.10;99.90
7307;DHT22;3694;48.732;9.248;2023-02-15T08:51:38;2.10;99.90
7307;DHT22;3694;48.732;9.248;2023-02-15T08:54:07;2.20;99.90
7307;DHT22;3694;48.732;9.248;2023-02-15T08:56:39;2.10;99.90
7307;DHT22;3694;48.732;9.248;2023-02-15T08:59:06;2.10;99.90
7307;DHT22;3694;48.732;9.248;2023-02-15T09:01:34;2.20;99.90
7307;DHT22;3694;48.732;9.248;2023-02-15T09:04:05;2.10;99.90
7307;DHT22;3694;48.732;9.248;2023-02-15T09:06:32;2.20;99.90
7307;DHT22;3694;48.732;9.248;2023-02-15T09:08:57;2.20;99.90
7307;DHT22;3694;48.732;9.248;2023-02-15T09:11:25;2.20;99.90
7307;DHT22;3694;48.732;9.248;2023-02-15T09:14:00;2.20;99.90
7307;DHT22;3694;48.732;9.248;2023-02-15T09:16:28;2.20;99.90
7307;DHT22;3694;48.732;9.248;2023-02-15T09:18:54;2.20;99.90
7307;DHT22;3694;48.732;9.248;2023-02-15T09:21:22;2.10;99.90
7307;DHT22;3694;48.732;9.248;2023-02-15T09:23:49;2.10;99.90
7307;DHT22;3694;48.732;9.248;2023-02-15T09:26:19;2.10;99.90
7307;DHT22;3694;48.732;9.248;2023-02-15T09:28:47;2.00;99.90
7307;DHT22;3694;48.732;9.248;2023-02-15T09:31:16;2.10;99.90
7307;DHT22;3694;48.732;9.248;2023-02-15T09:33:43;2.20;99.90
7307;DHT22;3694;48.732;9.248;2023-02-15T09:38:42;2.30;99.90
7307;DHT22;3694;48.732;9.248;2023-02-15T09:48:54;2.70;99.90
7307;DHT22;3694;48.732;9.248;2023-02-15T09:56:39;2.90;99.90
7307;DHT22;3694;48.732;9.248;2023-02-15T09:59:29;3.20;99.90
7307;DHT22;3694;48.732;9.248;2023-02-15T10:08:14;3.30;99.90
7307;DHT22;3694;48.732;9.248;2023-02-15T10:13:31;3.50;99.90
7307;DHT22;3694;48.732;9.248;2023-02-15T10:26:46;4.50;99.90
7307;DHT22;3694;48.732;9.248;2023-02-15T10:31:51;4.60;99.90
7307;DHT22;3694;48.732;9.248;2023-02-15T10:37:16;4.80;99.90
7307;DHT22;3694;48.732;9.248;2023-02-15T10:42:50;4.90;99.90
7307;DHT22;3694;48.732;9.248;2023-02-15T10:50:46;5.20;99.90
7307;DHT22;3694;48.732;9.248;2023-02-15T10:53:15;5.30;99.90
7307;DHT22;3694;48.732;9.248;2023-02-15T10:55:50;5.40;98.80
7307;DHT22;3694;48.732;9.248;2023-02-15T11:01:33;5.50;98.80
7307;DHT22;3694;48.732;9.248;2023-02-15T11:04:30;5.60;97.60
7307;DHT22;3694;48.732;9.248;2023-02-15T11:07:04;5.80;96.40
7307;DHT22;3694;48.732;9.248;2023-02-15T11:09:40;5.90;96.60
7307;DHT22;3694;48.732;9.248;2023-02-15T11:12:14;6.00;96.30
7307;DHT22;3694;48.732;9.248;2023-02-15T11:17:25;6.20;95.70
7307;DHT22;3694;48.732;9.248;2023-02-15T11:22:42;6.50;95.30
7307;DHT22;3694;48.732;9.248;2023-02-15T11:25:18;6.50;94.70
7307;DHT22;3694;48.732;9.248;2023-02-15T11:27:46;6.70;93.90
7307;DHT22;3694;48.732;9.248;2023-02-15T11:30:15;6.80;93.80
7307;DHT22;3694;48.732;9.248;2023-02-15T11:32:43;7.00;93.70
7307;DHT22;3694;48.732;9.248;2023-02-15T11:38:06;7.30;93.80
7307;DHT22;3694;48.732;9.248;2023-02-15T11:40:44;7.30;93.20
7307;DHT22;3694;48.732;9.248;2023-02-15T11:46:08;7.60;93.20
7307;DHT22;3694;48.732;9.248;2023-02-15T11:48:35;7.80;94.20
7307;DHT22;3694;48.732;9.248;2023-02-15T11:51:02;7.80;94.20
7307;DHT22;3694;48.732;9.248;2023-02-15T11:53:32;7.90;94.50
7307;DHT22;3694;48.732;9.248;2023-02-15T11:55:58;8.00;94.80
7307;DHT22;3694;48.732;9.248;2023-02-15T11:58:33;8.10;94.60
7307;DHT22;3694;48.732;9.248;2023-02-15T12:01:18;8.10;93.90
7307;DHT22;3694;48.732;9.248;2023-02-15T12:03:50;8.10;93.70
7307;DHT22;3694;48.732;9.248;2023-02-15T12:06:26;8.10;93.90
7307;DHT22;3694;48.732;9.248;2023-02-15T12:11:51;8.20;93.70
7307;DHT22;3694;48.732;9.248;2023-02-15T12:14:16;8.20;93.90
7307;DHT22;3694;48.732;9.248;2023-02-15T12:16:51;8.30;94.30
7307;DHT22;3694;48.732;9.248;2023-02-15T12:21:54;8.40;93.30
7307;DHT22;3694;48.732;9.248;2023-02-15T12:24:38;8.50;94.30
7307;DHT22;3694;48.732;9.248;2023-02-15T12:27:16;8.40;93.80
7307;DHT22;3694;48.732;9.248;2023-02-15T12:29:51;8.50;95.10
7307;DHT22;3694;48.732;9.248;2023-02-15T12:32:22;8.50;93.50
7307;DHT22;3694;48.732;9.248;2023-02-15T12:34:48;8.50;94.10
7307;DHT22;3694;48.732;9.248;2023-02-15T12:37:21;8.50;93.70
7307;DHT22;3694;48.732;9.248;2023-02-15T12:40:01;8.60;93.80
7307;DHT22;3694;48.732;9.248;2023-02-15T12:42:40;8.70;94.40
7307;DHT22;3694;48.732;9.248;2023-02-15T12:45:26;8.90;93.80
7307;DHT22;3694;48.732;9.248;2023-02-15T12:48:17;9.00;93.40
7307;DHT22;3694;48.732;9.248;2023-02-15T12:50:48;9.10;93.40
7307;DHT22;3694;48.732;9.248;2023-02-15T12:53:23;9.10;92.50
7307;DHT22;3694;48.732;9.248;2023-02-15T12:55:57;9.20;92.80
7307;DHT22;3694;48.732;9.248;2023-02-15T12:58:25;9.20;92.40
7307;DHT22;3694;48.732;9.248;2023-02-15T13:03:40;9.40;92.70
7307;DHT22;3694;48.732;9.248;2023-02-15T13:06:17;9.50;92.20
7307;DHT22;3694;48.732;9.248;2023-02-15T13:08:49;9.60;92.50
7307;DHT22;3694;48.732;9.248;2023-02-15T13:11:28;9.60;92.40
7307;DHT22;3694;48.732;9.248;2023-02-15T13:14:00;9.60;91.70
7307;DHT22;3694;48.732;9.248;2023-02-15T13:16:36;9.60;91.30
7307;DHT22;3694;48.732;9.248;2023-02-15T13:19:16;9.50;92.70
7307;DHT22;3694;48.732;9.248;2023-02-15T13:21:46;9.50;91.60
7307;DHT22;3694;48.732;9.248;2023-02-15T13:24:36;9.50;91.80
7307;DHT22;3694;48.732;9.248;2023-02-15T13:27:03;9.60;91.50
7307;DHT22;3694;48.732;9.248;2023-02-15T13:29:33;9.70;91.30
7307;DHT22;3694;48.732;9.248;2023-02-15T13:32:12;9.70;91.20
7307;DHT22;3694;48.732;9.248;2023-02-15T13:34:39;9.70;90.60
7307;DHT22;3694;48.732;9.248;2023-02-15T13:37:21;9.90;91.50
7307;DHT22;3694;48.732;9.248;2023-02-15T13:39:54;9.90;91.00
7307;DHT22;3694;48.732;9.248;2023-02-15T13:42:40;9.90;91.00
7307;DHT22;3694;48.732;9.248;2023-02-15T13:45:13;9.80;90.80
7307;DHT22;3694;48.732;9.248;2023-02-15T13:47:57;9.80;91.20
7307;DHT22;3694;48.732;9.248;2023-02-15T13:50:56;9.70;90.90
7307;DHT22;3694;48.732;9.248;2023-02-15T14:10:25;9.60;91.30
7307;DHT22;3694;48.732;9.248;2023-02-15T14:15:50;9.60;91.90
7307;DHT22;3694;48.732;9.248;2023-02-15T14:18:40;9.50;91.60
7307;DHT22;3694;48.732;9.248;2023-02-15T14:21:15;9.40;91.20
7307;DHT22;3694;48.732;9.248;2023-02-15T14:29:25;9.40;91.80
7307;DHT22;3694;48.732;9.248;2023-02-15T14:31:57;9.30;91.50
7307;DHT22;3694;48.732;9.248;2023-02-15T14:34:30;9.30;91.30
7307;DHT22;3694;48.732;9.248;2023-02-15T14:36:57;9.20;91.20
7307;DHT22;3694;48.732;9.248;2023-02-15T14:39:42;9.30;91.10
7307;DHT22;3694;48.732;9.248;2023-02-15T14:42:53;9.40;90.50
7307;DHT22;3694;48.732;9.248;2023-02-15T14:46:09;9.40;90.20
7307;DHT22;3694;48.732;9.248;2023-02-15T14:48:32;9.60;90.00
7307;DHT22;3694;48.732;9.248;2023-02-15T14:50:58;9.60;89.50
7307;DHT22;3694;48.732;9.248;2023-02-15T14:53:36;9.60;90.60
7307;DHT22;3694;48.732;9.248;2023-02-15T14:56:15;9.60;92.20
7307;DHT22;3694;48.732;9.248;2023-02-15T15:01:34;9.30;92.60
7307;DHT22;3694;48.732;9.248;2023-02-15T15:04:14;9.10;92.20
7307;DHT22;3694;48.732;9.248;2023-02-15T15:09:46;8.70;92.60
7307;DHT22;3694;48.732;9.248;2023-02-15T15:14:43;8.90;93.40
7307;DHT22;3694;48.732;9.248;2023-02-15T15:20:13;8.60;93.00
7307;DHT22;3694;48.732;9.248;2023-02-15T15:22:41;8.50;93.00
7307;DHT22;3694;48.732;9.248;2023-02-15T15:27:52;8.30;93.50
7307;DHT22;3694;48.732;9.248;2023-02-15T15:41:30;7.80;94.80
7307;DHT22;3694;48.732;9.248;2023-02-15T15:47:29;7.60;94.10
7307;DHT22;3694;48.732;9.248;2023-02-15T15:50:00;7.50;94.50
7307;DHT22;3694;48.732;9.248;2023-02-15T15:52:27;7.50;94.80
7307;DHT22;3694;48.732;9.248;2023-02-15T15:55:02;7.50;95.10
7307;DHT22;3694;48.732;9.248;2023-02-15T15:57:34;7.40;95.50
7307;DHT22;3694;48.732;9.248;2023-02-15T16:00:00;7.40;95.90
7307;DHT22;3694;48.732;9.248;2023-02-15T16:02:27;7.30;96.10
7307;DHT22;3694;48.732;9.248;2023-02-15T16:04:53;7.20;96.70
7307;DHT22;3694;48.732;9.248;2023-02-15T16:10:16;7.10;97.30
7307;DHT22;3694;48.732;9.248;2023-02-15T16:12:46;7.00;97.40
7307;DHT22;3694;48.732;9.248;2023-02-15T16:15:31;6.90;97.10
7307;DHT22;3694;48.732;9.248;2023-02-15T16:17:59;6.80;96.90
7307;DHT22;3694;48.732;9.248;2023-02-15T16:20:34;6.60;97.10
7307;DHT22;3694;48.732;9.248;2023-02-15T16:23:44;6.50;96.90
7307;DHT22;3694;48.732;9.248;2023-02-15T16:29:01;6.10;97.80
7307;DHT22;3694;48.732;9.248;2023-02-15T16:31:27;5.70;98.30
7307;DHT22;3694;48.732;9.248;2023-02-15T16:33:53;5.50;98.60
7307;DHT22;3694;48.732;9.248;2023-02-15T16:36:26;5.30;99.00
7307;DHT22;3694;48.732;9.248;2023-02-15T16:41:26;4.80;99.80
7307;DHT22;3694;48.732;9.248;2023-02-15T16:43:54;4.30;99.90
7307;DHT22;3694;48.732;9.248;2023-02-15T16:46:31;4.50;99.90
7307;DHT22;3694;48.732;9.248;2023-02-15T16:49:00;4.40;99.90
7307;DHT22;3694;48.732;9.248;2023-02-15T16:51:29;4.30;99.90
7307;DHT22;3694;48.732;9.248;2023-02-15T16:54:04;4.40;99.90
7307;DHT22;3694;48.732;9.248;2023-02-15T16:56:31;4.20;99.90
7307;DHT22;3694;48.732;9.248;2023-02-15T16:58:58;4.10;99.90
7307;DHT22;3694;48.732;9.248;2023-02-15T17:01:27;4.00;99.90
7307;DHT22;3694;48.732;9.248;2023-02-15T17:04:33;4.10;99.90
7307;DHT22;3694;48.732;9.248;2023-02-15T17:07:17;4.00;99.90
7307;DHT22;3694;48.732;9.248;2023-02-15T17:09:56;4.00;99.90
7307;DHT22;3694;48.732;9.248;2023-02-15T17:15:33;3.90;99.90
7307;DHT22;3694;48.732;9.248;2023-02-15T17:18:13;3.80;99.90
7307;DHT22;3694;48.732;9.248;2023-02-15T17:20:40;3.80;99.90
7307;DHT22;3694;48.732;9.248;2023-02-15T17:23:21;3.90;99.90
7307;DHT22;3694;48.732;9.248;2023-02-15T17:25:47;3.90;99.90
7307;DHT22;3694;48.732;9.248;2023-02-15T17:28:20;3.60;99.90
7307;DHT22;3694;48.732;9.248;2023-02-15T17:30:46;3.90;99.90
7307;DHT22;3694;48.732;9.248;2023-02-15T17:36:06;4.00;99.90
7307;DHT22;3694;48.732;9.248;2023-02-15T17:38:35;4.00;99.90
7307;DHT22;3694;48.732;9.248;2023-02-15T17:41:00;4.00;99.90
7307;DHT22;3694;48.732;9.248;2023-02-15T17:43:26;4.20;99.90
7307;DHT22;3694;48.732;9.248;2023-02-15T17:45:52;3.90;99.90
7307;DHT22;3694;48.732;9.248;2023-02-15T17:48:33;4.00;99.90
7307;DHT22;3694;48.732;9.248;2023-02-15T17:51:01;4.00;99.90
7307;DHT22;3694;48.732;9.248;2023-02-15T17:53:27;4.00;99.90
7307;DHT22;3694;48.732;9.248;2023-02-15T17:55:53;3.90;99.90
7307;DHT22;3694;48.732;9.248;2023-02-15T17:58:20;3.90;99.90
7307;DHT22;3694;48.732;9.248;2023-02-15T18:00:57;3.80;99.90
7307;DHT22;3694;48.732;9.248;2023-02-15T18:03:47;3.60;99.90
7307;DHT22;3694;48.732;9.248;2023-02-15T18:06:32;3.40;99.90
7307;DHT22;3694;48.732;9.248;2023-02-15T18:09:19;3.30;99.90
7307;DHT22;3694;48.732;9.248;2023-02-15T18:12:33;3.10;99.90
7307;DHT22;3694;48.732;9.248;2023-02-15T18:15:01;2.90;99.90
7307;DHT22;3694;48.732;9.248;2023-02-15T18:17:39;2.60;99.90
7307;DHT22;3694;48.732;9.248;2023-02-15T18:20:49;2.50;99.90
7307;DHT22;3694;48.732;9.248;2023-02-15T18:22:56;2.40;99.90
7307;DHT22;3694;48.732;9.248;2023-02-15T18:25:22;2.30;99.90
7307;DHT22;3694;48.732;9.248;2023-02-15T18:27:49;2.40;99.90
7307;DHT22;3694;48.732;9.248;2023-02-15T18:30:21;2.30;99.90
7307;DHT22;3694;48.732;9.248;2023-02-15T18:32:48;2.20;99.90
7307;DHT22;3694;48.732;9.248;2023-02-15T18:35:17;2.20;99.90
7307;DHT22;3694;48.732;9.248;2023-02-15T18:37:44;2.20;99.90
7307;DHT22;3694;48.732;9.248;2023-02-15T18:40:19;2.30;99.90
7307;DHT22;3694;48.732;9.248;2023-02-15T18:42:46;2.40;99.90
7307;DHT22;3694;48.732;9.248;2023-02-15T18:45:15;2.40;99.90
7307;DHT22;3694;48.732;9.248;2023-02-15T18:47:41;2.30;99.90
7307;DHT22;3694;48.732;9.248;2023-02-15T18:50:07;2.30;99.90
7307;DHT22;3694;48.732;9.248;2023-02-15T18:52:36;2.20;99.90
7307;DHT22;3694;48.732;9.248;2023-02-15T18:55:04;2.20;99.90
7307;DHT22;3694;48.732;9.248;2023-02-15T18:57:37;2.10;99.90
7307;DHT22;3694;48.732;9.248;2023-02-15T19:00:02;2.00;99.90
7307;DHT22;3694;48.732;9.248;2023-02-15T19:02:29;2.10;99.90
7307;DHT22;3694;48.732;9.248;2023-02-15T19:04:55;2.10;99.90
7307;DHT22;3694;48.732;9.248;2023-02-15T19:07:24;2.20;99.90
7307;DHT22;3694;48.732;9.248;2023-02-15T19:09:56;2.20;99.90
7307;DHT22;3694;48.732;9.248;2023-02-15T19:12:22;2.30;99.90